sensor_id;sensor_type;location;lat;lon;timestamp;temperature;humidity
31038;DHT22;17702;47.590;7.666;2023-02-04T00:00:10;8.60;99.90
31038;DHT22;17702;47.590;7.666;2023-02-04T00:02:37;8.60;99.90
31038;DHT22;17702;47.590;7.666;2023-02-04T00:05:03;8.60;99.90
31038;DHT22;17702;47.590;7.666;2023-02-04T00:07:29;8.50;99.90
31038;DHT22;17702;47.590;7.666;2023-02-04T00:09:54;8.60;99.90
31038;DHT22;17702;47.590;7.666;2023-02-04T00:12:20;8.50;99.90
31038;DHT22;17702;47.590;7.666;2023-02-04T00:14:45;8.60;99.90
31038;DHT22;17702;47.590;7.666;2023-02-04T00:17:11;8.50;99.90
31038;DHT22;17702;47.590;7.666;2023-02-04T00:19:40;8.40;99.90
31038;DHT22;17702;47.590;7.666;2023-02-04T00:22:06;8.30;99.90
31038;DHT22;17702;47.590;7.666;2023-02-04T00:24:32;8.30;99.90
31038;DHT22;17702;47.590;7.666;2023-02-04T00:26:58;8.30;99.90
31038;DHT22;17702;47.590;7.666;2023-02-04T00:29:23;8.30;99.90
31038;DHT22;17702;47.590;7.666;2023-02-04T00:31:49;8.30;99.90
31038;DHT22;17702;47.590;7.666;2023-02-04T00:34:14;8.20;99.90
31038;DHT22;17702;47.590;7.666;2023-02-04T00:36:40;8.20;99.90
31038;DHT22;17702;47.590;7.666;2023-02-04T00:39:05;8.20;99.90
31038;DHT22;17702;47.590;7.666;2023-02-04T00:41:30;8.20;99.90
31038;DHT22;17702;47.590;7.666;2023-02-04T00:43:56;8.20;99.90
31038;DHT22;17702;47.590;7.666;2023-02-04T00:46:21;8.10;99.90
31038;DHT22;17702;47.590;7.666;2023-02-04T00:48:47;8.20;99.90
31038;DHT22;17702;47.590;7.666;2023-02-04T00:51:12;8.30;99.90
31038;DHT22;17702;47.590;7.666;2023-02-04T00:53:38;8.20;99.90
31038;DHT22;17702;47.590;7.666;2023-02-04T00:56:04;8.20;99.90
31038;DHT22;17702;47.590;7.666;2023-02-04T00:58:29;8.20;99.90
31038;DHT22;17702;47.590;7.666;2023-02-04T01:00:55;8.20;99.90
31038;DHT22;17702;47.590;7.666;2023-02-04T01:03:20;8.10;99.90
31038;DHT22;17702;47.590;7.666;2023-02-04T01:05:46;8.10;99.90
31038;DHT22;17702;47.590;7.666;2023-02-04T01:08:11;8.10;99.90
31038;DHT22;17702;47.590;7.666;2023-02-04T01:10:37;8.10;99.90
31038;DHT22;17702;47.590;7.666;2023-02-04T01:13:02;8.10;99.90
31038;DHT22;17702;47.590;7.666;2023-02-04T01:15:28;8.10;99.90
31038;DHT22;17702;47.590;7.666;2023-02-04T01:17:53;8.10;99.90
31038;DHT22;17702;47.590;7.666;2023-02-04T01:20:19;8.20;99.90
31038;DHT22;17702;47.590;7.666;2023-02-04T01:22:44;8.20;99.90
31038;DHT22;17702;47.590;7.666;2023-02-04T01:25:10;8.20;99.90
31038;DHT22;17702;47.590;7.666;2023-02-04T01:27:35;8.30;99.90
31038;DHT22;17702;47.590;7.666;2023-02-04T01:30:01;8.30;99.90
31038;DHT22;17702;47.590;7.666;2023-02-04T01:32:27;8.40;99.90
31038;DHT22;17702;47.590;7.666;2023-02-04T01:34:52;8.40;99.90
31038;DHT22;17702;47.590;7.666;2023-02-04T01:37:18;8.50;99.90
31038;DHT22;17702;47.590;7.666;2023-02-04T01:39:43;8.50;99.90
31038;DHT22;17702;47.590;7.666;2023-02-04T01:42:08;8.60;99.90
31038;DHT22;17702;47.590;7.666;2023-02-04T01:44:34;8.50;99.90
31038;DHT22;17702;47.590;7.666;2023-02-04T01:47:00;8.50;99.90
31038;DHT22;17702;47.590;7.666;2023-02-04T01:49:25;8.60;99.90
31038;DHT22;17702;47.590;7.666;2023-02-04T01:51:51;8.60;99.90
31038;DHT22;17702;47.590;7.666;2023-02-04T01:54:17;8.50;99.90
31038;DHT22;17702;47.590;7.666;2023-02-04T01:56:44;8.50;99.90
31038;DHT22;17702;47.590;7.666;2023-02-04T01:59:13;8.50;99.90
31038;DHT22;17702;47.590;7.666;2023-02-04T02:01:40;8.40;99.90
31038;DHT22;17702;47.590;7.666;2023-02-04T02:04:08;8.50;99.90
31038;DHT22;17702;47.590;7.666;2023-02-04T02:06:34;8.50;99.90
31038;DHT22;17702;47.590;7.666;2023-02-04T02:09:01;8.50;99.90
31038;DHT22;17702;47.590;7.666;2023-02-04T02:11:26;8.50;99.90
31038;DHT22;17702;47.590;7.666;2023-02-04T02:13:52;8.50;99.90
31038;DHT22;17702;47.590;7.666;2023-02-04T02:16:18;8.60;99.90
31038;DHT22;17702;47.590;7.666;2023-02-04T02:18:43;8.60;99.90
31038;DHT22;17702;47.590;7.666;2023-02-04T02:21:09;8.70;99.90
31038;DHT22;17702;47.590;7.666;2023-02-04T02:23:45;8.70;99.90
31038;DHT22;17702;47.590;7.666;2023-02-04T02:26:12;8.70;99.90
31038;DHT22;17702;47.590;7.666;2023-02-04T02:28:37;8.70;99.90
31038;DHT22;17702;47.590;7.666;2023-02-04T02:31:03;8.60;99.90
31038;DHT22;17702;47.590;7.666;2023-02-04T02:33:29;8.70;99.90
31038;DHT22;17702;47.590;7.666;2023-02-04T02:35:54;8.60;99.90
31038;DHT22;17702;47.590;7.666;2023-02-04T02:38:20;8.60;99.90
31038;DHT22;17702;47.590;7.666;2023-02-04T02:40:46;8.60;99.90
31038;DHT22;17702;47.590;7.666;2023-02-04T02:43:22;8.60;99.90
31038;DHT22;17702;47.590;7.666;2023-02-04T02:45:48;8.50;99.90
31038;DHT22;17702;47.590;7.666;2023-02-04T02:48:14;8.60;99.90
31038;DHT22;17702;47.590;7.666;2023-02-04T02:50:39;8.60;99.90
31038;DHT22;17702;47.590;7.666;2023-02-04T02:53:10;8.60;99.90
31038;DHT22;17702;47.590;7.666;2023-02-04T02:55:36;8.60;99.90
31038;DHT22;17702;47.590;7.666;2023-02-04T02:58:01;8.60;99.90
31038;DHT22;17702;47.590;7.666;2023-02-04T03:00:28;8.50;99.90
31038;DHT22;17702;47.590;7.666;2023-02-04T03:03:01;8.50;99.90
31038;DHT22;17702;47.590;7.666;2023-02-04T03:05:29;8.50;99.90
31038;DHT22;17702;47.590;7.666;2023-02-04T03:07:55;8.50;99.90
31038;DHT22;17702;47.590;7.666;2023-02-04T03:10:21;8.50;99.90
31038;DHT22;17702;47.590;7.666;2023-02-04T03:12:46;8.40;99.90
31038;DHT22;17702;47.590;7.666;2023-02-04T03:15:12;8.40;99.90
31038;DHT22;17702;47.590;7.666;2023-02-04T03:17:38;8.30;99.90
31038;DHT22;17702;47.590;7.666;2023-02-04T03:20:04;8.40;99.90
31038;DHT22;17702;47.590;7.666;2023-02-04T03:22:30;8.40;99.90
31038;DHT22;17702;47.590;7.666;2023-02-04T03:24:56;8.40;99.90
31038;DHT22;17702;47.590;7.666;2023-02-04T03:27:22;8.40;99.90
31038;DHT22;17702;47.590;7.666;2023-02-04T03:29:48;8.40;99.90
31038;DHT22;17702;47.590;7.666;2023-02-04T03:32:13;8.40;99.90
31038;DHT22;17702;47.590;7.666;2023-02-04T03:34:39;8.40;99.90
31038;DHT22;17702;47.590;7.666;2023-02-04T03:37:04;8.40;99.90
31038;DHT22;17702;47.590;7.666;2023-02-04T03:39:30;8.50;99.90
31038;DHT22;17702;47.590;7.666;2023-02-04T03:41:55;8.40;99.90
31038;DHT22;17702;47.590;7.666;2023-02-04T03:44:21;8.40;99.90
31038;DHT22;17702;47.590;7.666;2023-02-04T03:46:54;8.40;99.90
31038;DHT22;17702;47.590;7.666;2023-02-04T03:49:23;8.40;99.90
31038;DHT22;17702;47.590;7.666;2023-02-04T03:51:48;8.40;99.90
31038;DHT22;17702;47.590;7.666;2023-02-04T03:54:14;8.40;99.90
31038;DHT22;17702;47.590;7.666;2023-02-04T03:56:40;8.50;99.90
31038;DHT22;17702;47.590;7.666;2023-02-04T03:59:05;8.40;99.90
31038;DHT22;17702;47.590;7.666;2023-02-04T04:01:31;8.40;99.90
31038;DHT22;17702;47.590;7.666;2023-02-04T04:03:56;8.40;99.90
31038;DHT22;17702;47.590;7.666;2023-02-04T04:06:22;8.40;99.90
31038;DHT22;17702;47.590;7.666;2023-02-04T04:08:47;8.40;99.90
31038;DHT22;17702;47.590;7.666;2023-02-04T04:11:13;8.40;99.90
31038;DHT22;17702;47.590;7.666;2023-02-04T04:13:38;8.40;99.90
31038;DHT22;17702;47.590;7.666;2023-02-04T04:16:04;8.40;99.90
31038;DHT22;17702;47.590;7.666;2023-02-04T04:18:30;8.50;99.90
31038;DHT22;17702;47.590;7.666;2023-02-04T04:20:57;8.50;99.90
31038;DHT22;17702;47.590;7.666;2023-02-04T04:23:22;8.50;99.90
31038;DHT22;17702;47.590;7.666;2023-02-04T04:25:48;8.40;99.90
31038;DHT22;17702;47.590;7.666;2023-02-04T04:28:13;8.30;99.90
31038;DHT22;17702;47.590;7.666;2023-02-04T04:30:39;8.30;99.90
31038;DHT22;17702;47.590;7.666;2023-02-04T04:33:04;8.30;99.90
31038;DHT22;17702;47.590;7.666;2023-02-04T04:35:30;8.40;99.90
31038;DHT22;17702;47.590;7.666;2023-02-04T04:37:55;8.50;99.90
31038;DHT22;17702;47.590;7.666;2023-02-04T04:40:21;8.50;99.90
31038;DHT22;17702;47.590;7.666;2023-02-04T04:42:46;8.40;99.90
31038;DHT22;17702;47.590;7.666;2023-02-04T04:45:12;8.50;99.90
31038;DHT22;17702;47.590;7.666;2023-02-04T04:47:38;8.50;99.90
31038;DHT22;17702;47.590;7.666;2023-02-04T04:50:04;8.50;99.90
31038;DHT22;17702;47.590;7.666;2023-02-04T04:52:29;8.50;99.90
31038;DHT22;17702;47.590;7.666;2023-02-04T04:54:55;8.40;99.90
31038;DHT22;17702;47.590;7.666;2023-02-04T04:57:20;8.40;99.90
31038;DHT22;17702;47.590;7.666;2023-02-04T04:59:46;8.40;99.90
31038;DHT22;17702;47.590;7.666;2023-02-04T05:02:11;8.30;99.90
31038;DHT22;17702;47.590;7.666;2023-02-04T05:04:37;8.30;99.90
31038;DHT22;17702;47.590;7.666;2023-02-04T05:07:02;8.40;99.90
31038;DHT22;17702;47.590;7.666;2023-02-04T05:09:28;8.40;99.90
31038;DHT22;17702;47.590;7.666;2023-02-04T05:11:55;8.40;99.90
31038;DHT22;17702;47.590;7.666;2023-02-04T05:14:20;8.40;99.90
31038;DHT22;17702;47.590;7.666;2023-02-04T05:16:46;8.40;99.90
31038;DHT22;17702;47.590;7.666;2023-02-04T05:19:11;8.50;99.90
31038;DHT22;17702;47.590;7.666;2023-02-04T05:21:36;8.40;99.90
31038;DHT22;17702;47.590;7.666;2023-02-04T05:24:02;8.40;99.90
31038;DHT22;17702;47.590;7.666;2023-02-04T05:26:28;8.40;99.90
31038;DHT22;17702;47.590;7.666;2023-02-04T05:28:53;8.40;99.90
31038;DHT22;17702;47.590;7.666;2023-02-04T05:31:19;8.30;99.90
31038;DHT22;17702;47.590;7.666;2023-02-04T05:33:44;8.30;99.90
31038;DHT22;17702;47.590;7.666;2023-02-04T05:36:10;8.40;99.90
31038;DHT22;17702;47.590;7.666;2023-02-04T05:38:35;8.40;99.90
31038;DHT22;17702;47.590;7.666;2023-02-04T05:41:01;8.30;99.90
31038;DHT22;17702;47.590;7.666;2023-02-04T05:43:26;8.40;99.90
31038;DHT22;17702;47.590;7.666;2023-02-04T05:45:52;8.40;99.90
31038;DHT22;17702;47.590;7.666;2023-02-04T05:48:17;8.20;99.90
31038;DHT22;17702;47.590;7.666;2023-02-04T05:50:43;8.10;99.90
31038;DHT22;17702;47.590;7.666;2023-02-04T05:53:08;8.00;99.90
31038;DHT22;17702;47.590;7.666;2023-02-04T05:55:34;8.00;99.90
31038;DHT22;17702;47.590;7.666;2023-02-04T05:57:59;8.10;99.90
31038;DHT22;17702;47.590;7.666;2023-02-04T06:00:25;8.20;99.90
31038;DHT22;17702;47.590;7.666;2023-02-04T06:02:50;8.20;99.90
31038;DHT22;17702;47.590;7.666;2023-02-04T06:05:16;8.20;99.90
31038;DHT22;17702;47.590;7.666;2023-02-04T06:07:42;8.20;99.90
31038;DHT22;17702;47.590;7.666;2023-02-04T06:10:08;8.30;99.90
31038;DHT22;17702;47.590;7.666;2023-02-04T06:12:34;8.30;99.90
31038;DHT22;17702;47.590;7.666;2023-02-04T06:14:59;8.20;99.90
31038;DHT22;17702;47.590;7.666;2023-02-04T06:17:25;8.20;99.90
31038;DHT22;17702;47.590;7.666;2023-02-04T06:19:50;8.30;99.90
31038;DHT22;17702;47.590;7.666;2023-02-04T06:22:16;8.20;99.90
31038;DHT22;17702;47.590;7.666;2023-02-04T06:24:42;8.20;99.90
31038;DHT22;17702;47.590;7.666;2023-02-04T06:27:07;8.10;99.90
31038;DHT22;17702;47.590;7.666;2023-02-04T06:29:33;8.10;99.90
31038;DHT22;17702;47.590;7.666;2023-02-04T06:31:58;8.00;99.90
31038;DHT22;17702;47.590;7.666;2023-02-04T06:34:23;8.00;99.90
31038;DHT22;17702;47.590;7.666;2023-02-04T06:36:49;8.00;99.90
31038;DHT22;17702;47.590;7.666;2023-02-04T06:39:14;8.10;99.90
31038;DHT22;17702;47.590;7.666;2023-02-04T06:41:40;8.10;99.90
31038;DHT22;17702;47.590;7.666;2023-02-04T06:44:05;8.10;99.90
31038;DHT22;17702;47.590;7.666;2023-02-04T06:46:32;8.10;99.90
31038;DHT22;17702;47.590;7.666;2023-02-04T06:48:57;8.10;99.90
31038;DHT22;17702;47.590;7.666;2023-02-04T06:51:23;8.10;99.90
31038;DHT22;17702;47.590;7.666;2023-02-04T06:53:48;8.10;99.90
31038;DHT22;17702;47.590;7.666;2023-02-04T06:56:14;8.20;99.90
31038;DHT22;17702;47.590;7.666;2023-02-04T06:58:39;8.10;99.90
31038;DHT22;17702;47.590;7.666;2023-02-04T07:01:05;8.10;99.90
31038;DHT22;17702;47.590;7.666;2023-02-04T07:03:30;8.10;99.90
31038;DHT22;17702;47.590;7.666;2023-02-04T07:05:56;8.10;99.90
31038;DHT22;17702;47.590;7.666;2023-02-04T07:08:21;8.10;99.90
31038;DHT22;17702;47.590;7.666;2023-02-04T07:10:47;8.10;99.90
31038;DHT22;17702;47.590;7.666;2023-02-04T07:13:12;8.10;99.90
31038;DHT22;17702;47.590;7.666;2023-02-04T07:15:38;8.20;99.90
31038;DHT22;17702;47.590;7.666;2023-02-04T07:18:03;8.20;99.90
31038;DHT22;17702;47.590;7.666;2023-02-04T07:20:29;8.20;99.90
31038;DHT22;17702;47.590;7.666;2023-02-04T07:22:54;8.20;99.90
31038;DHT22;17702;47.590;7.666;2023-02-04T07:25:20;8.20;99.90
31038;DHT22;17702;47.590;7.666;2023-02-04T07:27:45;8.20;99.90
31038;DHT22;17702;47.590;7.666;2023-02-04T07:30:11;8.20;99.90
31038;DHT22;17702;47.590;7.666;2023-02-04T07:32:37;8.20;99.90
31038;DHT22;17702;47.590;7.666;2023-02-04T07:35:02;8.20;99.90
31038;DHT22;17702;47.590;7.666;2023-02-04T07:37:28;8.20;99.90
31038;DHT22;17702;47.590;7.666;2023-02-04T07:39:53;8.20;99.90
31038;DHT22;17702;47.590;7.666;2023-02-04T07:42:19;8.30;99.90
31038;DHT22;17702;47.590;7.666;2023-02-04T07:44:44;8.30;99.90
31038;DHT22;17702;47.590;7.666;2023-02-04T07:47:10;8.30;99.90
31038;DHT22;17702;47.590;7.666;2023-02-04T07:49:37;8.30;99.90
31038;DHT22;17702;47.590;7.666;2023-02-04T07:52:02;8.30;99.90
31038;DHT22;17702;47.590;7.666;2023-02-04T07:54:28;8.30;99.90
31038;DHT22;17702;47.590;7.666;2023-02-04T07:56:53;8.20;99.90
31038;DHT22;17702;47.590;7.666;2023-02-04T07:59:19;8.20;99.90
31038;DHT22;17702;47.590;7.666;2023-02-04T08:01:44;8.20;99.90
31038;DHT22;17702;47.590;7.666;2023-02-04T08:04:10;8.30;99.90
31038;DHT22;17702;47.590;7.666;2023-02-04T08:06:35;8.30;99.90
31038;DHT22;17702;47.590;7.666;2023-02-04T08:09:01;8.40;99.90
31038;DHT22;17702;47.590;7.666;2023-02-04T08:11:26;8.40;99.90
31038;DHT22;17702;47.590;7.666;2023-02-04T08:13:51;8.40;99.90
31038;DHT22;17702;47.590;7.666;2023-02-04T08:16:17;8.40;99.90
31038;DHT22;17702;47.590;7.666;2023-02-04T08:18:42;8.50;99.90
31038;DHT22;17702;47.590;7.666;2023-02-04T08:21:08;8.40;99.90
31038;DHT22;17702;47.590;7.666;2023-02-04T08:23:33;8.50;99.90
31038;DHT22;17702;47.590;7.666;2023-02-04T08:25:59;8.50;99.90
31038;DHT22;17702;47.590;7.666;2023-02-04T08:28:24;8.50;99.90
31038;DHT22;17702;47.590;7.666;2023-02-04T08:30:50;8.60;99.90
31038;DHT22;17702;47.590;7.666;2023-02-04T08:33:16;8.60;99.90
31038;DHT22;17702;47.590;7.666;2023-02-04T08:35:41;8.60;99.90
31038;DHT22;17702;47.590;7.666;2023-02-04T08:38:07;8.60;99.90
31038;DHT22;17702;47.590;7.666;2023-02-04T08:40:32;8.60;99.90
31038;DHT22;17702;47.590;7.666;2023-02-04T08:42:58;8.60;99.90
31038;DHT22;17702;47.590;7.666;2023-02-04T08:45:23;8.60;99.90
31038;DHT22;17702;47.590;7.666;2023-02-04T08:47:51;8.60;99.90
31038;DHT22;17702;47.590;7.666;2023-02-04T08:50:16;8.70;99.90
31038;DHT22;17702;47.590;7.666;2023-02-04T08:52:42;8.70;99.90
31038;DHT22;17702;47.590;7.666;2023-02-04T08:55:07;8.80;99.90
31038;DHT22;17702;47.590;7.666;2023-02-04T08:57:33;8.80;99.90
31038;DHT22;17702;47.590;7.666;2023-02-04T08:59:59;8.80;99.90
31038;DHT22;17702;47.590;7.666;2023-02-04T09:02:24;8.80;99.90
31038;DHT22;17702;47.590;7.666;2023-02-04T09:04:50;8.80;99.90
31038;DHT22;17702;47.590;7.666;2023-02-04T09:07:16;8.90;99.90
31038;DHT22;17702;47.590;7.666;2023-02-04T09:09:41;8.90;99.90
31038;DHT22;17702;47.590;7.666;2023-02-04T09:12:07;9.00;99.90
31038;DHT22;17702;47.590;7.666;2023-02-04T09:14:32;8.90;99.90
31038;DHT22;17702;47.590;7.666;2023-02-04T09:16:57;8.90;99.90
31038;DHT22;17702;47.590;7.666;2023-02-04T09:19:23;8.90;99.90
31038;DHT22;17702;47.590;7.666;2023-02-04T09:21:51;8.90;99.90
31038;DHT22;17702;47.590;7.666;2023-02-04T09:24:16;8.90;99.90
31038;DHT22;17702;47.590;7.666;2023-02-04T09:26:42;8.80;99.90
31038;DHT22;17702;47.590;7.666;2023-02-04T09:29:07;8.90;99.90
31038;DHT22;17702;47.590;7.666;2023-02-04T09:31:33;8.90;99.90
31038;DHT22;17702;47.590;7.666;2023-02-04T09:33:58;8.90;99.90
31038;DHT22;17702;47.590;7.666;2023-02-04T09:36:24;8.90;99.90
31038;DHT22;17702;47.590;7.666;2023-02-04T09:38:52;8.90;99.90
31038;DHT22;17702;47.590;7.666;2023-02-04T09:41:18;8.90;99.90
31038;DHT22;17702;47.590;7.666;2023-02-04T09:43:43;8.90;99.90
31038;DHT22;17702;47.590;7.666;2023-02-04T09:46:19;8.90;99.90
31038;DHT22;17702;47.590;7.666;2023-02-04T09:48:45;9.10;99.90
31038;DHT22;17702;47.590;7.666;2023-02-04T09:51:11;9.50;99.90
31038;DHT22;17702;47.590;7.666;2023-02-04T09:53:40;9.50;99.90
31038;DHT22;17702;47.590;7.666;2023-02-04T09:56:07;9.40;99.90
31038;DHT22;17702;47.590;7.666;2023-02-04T09:58:33;9.30;99.90
31038;DHT22;17702;47.590;7.666;2023-02-04T10:01:04;9.30;99.90
31038;DHT22;17702;47.590;7.666;2023-02-04T10:03:30;9.20;99.90
31038;DHT22;17702;47.590;7.666;2023-02-04T10:05:56;9.20;99.90
31038;DHT22;17702;47.590;7.666;2023-02-04T10:08:30;9.20;99.90
31038;DHT22;17702;47.590;7.666;2023-02-04T10:10:57;9.20;99.90
31038;DHT22;17702;47.590;7.666;2023-02-04T10:13:23;9.20;99.90
31038;DHT22;17702;47.590;7.666;2023-02-04T10:15:51;9.20;99.90
31038;DHT22;17702;47.590;7.666;2023-02-04T10:18:28;9.40;99.90
31038;DHT22;17702;47.590;7.666;2023-02-04T10:20:55;9.70;99.90
31038;DHT22;17702;47.590;7.666;2023-02-04T10:23:21;9.70;99.90
31038;DHT22;17702;47.590;7.666;2023-02-04T10:25:48;9.60;99.90
31038;DHT22;17702;47.590;7.666;2023-02-04T10:28:13;9.60;99.90
31038;DHT22;17702;47.590;7.666;2023-02-04T10:30:40;9.60;99.90
31038;DHT22;17702;47.590;7.666;2023-02-04T10:33:21;9.60;99.90
31038;DHT22;17702;47.590;7.666;2023-02-04T10:35:50;9.60;99.90
31038;DHT22;17702;47.590;7.666;2023-02-04T10:38:16;9.60;99.90
31038;DHT22;17702;47.590;7.666;2023-02-04T10:40:41;9.60;99.90
31038;DHT22;17702;47.590;7.666;2023-02-04T10:43:07;9.60;99.90
31038;DHT22;17702;47.590;7.666;2023-02-04T10:45:34;9.50;99.90
31038;DHT22;17702;47.590;7.666;2023-02-04T10:48:00;9.50;99.90
31038;DHT22;17702;47.590;7.666;2023-02-04T10:50:26;9.50;99.90
31038;DHT22;17702;47.590;7.666;2023-02-04T10:53:01;9.40;99.90
31038;DHT22;17702;47.590;7.666;2023-02-04T10:55:46;9.50;99.90
31038;DHT22;17702;47.590;7.666;2023-02-04T10:58:13;9.50;99.90
31038;DHT22;17702;47.590;7.666;2023-02-04T11:00:39;9.50;99.90
31038;DHT22;17702;47.590;7.666;2023-02-04T11:03:15;9.40;99.90
31038;DHT22;17702;47.590;7.666;2023-02-04T11:05:43;9.50;99.90
31038;DHT22;17702;47.590;7.666;2023-02-04T11:11:15;9.50;99.90
31038;DHT22;17702;47.590;7.666;2023-02-04T11:16:11;9.40;99.90
31038;DHT22;17702;47.590;7.666;2023-02-04T11:18:47;9.40;99.90
31038;DHT22;17702;47.590;7.666;2023-02-04T11:21:14;9.50;99.90
31038;DHT22;17702;47.590;7.666;2023-02-04T11:23:45;9.40;99.90
31038;DHT22;17702;47.590;7.666;2023-02-04T11:29:07;9.30;99.90
31038;DHT22;17702;47.590;7.666;2023-02-04T11:36:34;9.30;99.90
31038;DHT22;17702;47.590;7.666;2023-02-04T11:39:13;9.40;99.90
31038;DHT22;17702;47.590;7.666;2023-02-04T11:41:41;9.40;99.90
31038;DHT22;17702;47.590;7.666;2023-02-04T11:44:08;9.40;99.90
31038;DHT22;17702;47.590;7.666;2023-02-04T11:46:34;9.40;99.90
31038;DHT22;17702;47.590;7.666;2023-02-04T11:49:00;9.40;99.90
31038;DHT22;17702;47.590;7.666;2023-02-04T11:51:29;9.40;99.90
31038;DHT22;17702;47.590;7.666;2023-02-04T11:53:55;9.40;99.90
31038;DHT22;17702;47.590;7.666;2023-02-04T11:56:21;9.40;99.90
31038;DHT22;17702;47.590;7.666;2023-02-04T11:58:47;9.50;99.90
31038;DHT22;17702;47.590;7.666;2023-02-04T12:01:20;9.40;99.90
31038;DHT22;17702;47.590;7.666;2023-02-04T12:03:59;9.50;99.90
31038;DHT22;17702;47.590;7.666;2023-02-04T12:06:29;9.50;99.90
31038;DHT22;17702;47.590;7.666;2023-02-04T12:11:29;9.50;99.90
31038;DHT22;17702;47.590;7.666;2023-02-04T12:13:56;9.60;99.90
31038;DHT22;17702;47.590;7.666;2023-02-04T12:16:21;9.60;99.90
31038;DHT22;17702;47.590;7.666;2023-02-04T12:18:47;9.60;99.90
31038;DHT22;17702;47.590;7.666;2023-02-04T12:21:13;9.60;99.90
31038;DHT22;17702;47.590;7.666;2023-02-04T12:23:38;9.70;99.90
31038;DHT22;17702;47.590;7.666;2023-02-04T12:26:04;9.70;99.90
31038;DHT22;17702;47.590;7.666;2023-02-04T12:28:29;9.70;99.90
31038;DHT22;17702;47.590;7.666;2023-02-04T12:30:55;9.80;99.90
31038;DHT22;17702;47.590;7.666;2023-02-04T12:33:20;9.80;99.90
31038;DHT22;17702;47.590;7.666;2023-02-04T12:35:47;9.80;99.90
31038;DHT22;17702;47.590;7.666;2023-02-04T12:38:12;9.80;99.90
31038;DHT22;17702;47.590;7.666;2023-02-04T12:40:38;9.80;99.90
31038;DHT22;17702;47.590;7.666;2023-02-04T12:43:04;9.80;99.90
31038;DHT22;17702;47.590;7.666;2023-02-04T12:45:30;9.70;99.90
31038;DHT22;17702;47.590;7.666;2023-02-04T12:47:56;9.70;99.90
31038;DHT22;17702;47.590;7.666;2023-02-04T12:50:21;9.70;99.90
31038;DHT22;17702;47.590;7.666;2023-02-04T12:53:04;9.70;99.90
31038;DHT22;17702;47.590;7.666;2023-02-04T12:55:30;9.60;99.90
31038;DHT22;17702;47.590;7.666;2023-02-04T12:57:56;9.70;99.90
31038;DHT22;17702;47.590;7.666;2023-02-04T13:00:22;9.70;99.90
31038;DHT22;17702;47.590;7.666;2023-02-04T13:02:48;9.70;99.90
31038;DHT22;17702;47.590;7.666;2023-02-04T13:05:13;9.70;99.90
31038;DHT22;17702;47.590;7.666;2023-02-04T13:07:39;9.80;99.90
31038;DHT22;17702;47.590;7.666;2023-02-04T13:10:06;9.80;99.90
31038;DHT22;17702;47.590;7.666;2023-02-04T13:12:31;9.90;99.90
31038;DHT22;17702;47.590;7.666;2023-02-04T13:14:57;9.90;99.90
31038;DHT22;17702;47.590;7.666;2023-02-04T13:17:22;9.90;99.90
31038;DHT22;17702;47.590;7.666;2023-02-04T13:19:48;9.90;99.90
31038;DHT22;17702;47.590;7.666;2023-02-04T13:22:13;9.90;99.90
31038;DHT22;17702;47.590;7.666;2023-02-04T13:24:39;9.90;99.90
31038;DHT22;17702;47.590;7.666;2023-02-04T13:27:04;10.00;99.90
31038;DHT22;17702;47.590;7.666;2023-02-04T13:29:30;10.00;99.90
31038;DHT22;17702;47.590;7.666;2023-02-04T13:31:55;10.10;99.90
31038;DHT22;17702;47.590;7.666;2023-02-04T13:34:21;10.10;99.90
31038;DHT22;17702;47.590;7.666;2023-02-04T13:36:46;10.10;99.90
31038;DHT22;17702;47.590;7.666;2023-02-04T13:39:12;10.10;99.90
31038;DHT22;17702;47.590;7.666;2023-02-04T13:41:38;10.10;99.90
31038;DHT22;17702;47.590;7.666;2023-02-04T13:44:04;10.10;99.90
31038;DHT22;17702;47.590;7.666;2023-02-04T13:46:29;10.10;99.90
31038;DHT22;17702;47.590;7.666;2023-02-04T13:48:55;10.10;99.90
31038;DHT22;17702;47.590;7.666;2023-02-04T13:51:21;10.20;99.90
31038;DHT22;17702;47.590;7.666;2023-02-04T13:53:46;10.20;99.90
31038;DHT22;17702;47.590;7.666;2023-02-04T13:56:12;10.20;99.90
31038;DHT22;17702;47.590;7.666;2023-02-04T13:58:37;10.20;99.90
31038;DHT22;17702;47.590;7.666;2023-02-04T14:01:10;10.20;99.90
31038;DHT22;17702;47.590;7.666;2023-02-04T14:03:36;10.20;99.90
31038;DHT22;17702;47.590;7.666;2023-02-04T14:06:02;10.30;99.90
31038;DHT22;17702;47.590;7.666;2023-02-04T14:08:27;10.30;99.90
31038;DHT22;17702;47.590;7.666;2023-02-04T14:10:53;10.30;99.90
31038;DHT22;17702;47.590;7.666;2023-02-04T14:13:18;10.40;99.90
31038;DHT22;17702;47.590;7.666;2023-02-04T14:15:44;10.40;99.90
31038;DHT22;17702;47.590;7.666;2023-02-04T14:18:09;10.50;99.90
31038;DHT22;17702;47.590;7.666;2023-02-04T14:20:35;10.40;99.90
31038;DHT22;17702;47.590;7.666;2023-02-04T14:23:01;10.50;99.90
31038;DHT22;17702;47.590;7.666;2023-02-04T14:25:27;10.40;99.90
31038;DHT22;17702;47.590;7.666;2023-02-04T14:27:52;10.50;99.90
31038;DHT22;17702;47.590;7.666;2023-02-04T14:30:21;10.50;99.90
31038;DHT22;17702;47.590;7.666;2023-02-04T14:32:48;10.50;99.90
31038;DHT22;17702;47.590;7.666;2023-02-04T14:35:14;10.40;99.90
31038;DHT22;17702;47.590;7.666;2023-02-04T14:37:39;10.40;99.90
31038;DHT22;17702;47.590;7.666;2023-02-04T14:40:05;10.40;99.90
31038;DHT22;17702;47.590;7.666;2023-02-04T14:42:30;10.50;99.90
31038;DHT22;17702;47.590;7.666;2023-02-04T14:44:56;10.50;99.90
31038;DHT22;17702;47.590;7.666;2023-02-04T14:47:21;10.50;99.90
31038;DHT22;17702;47.590;7.666;2023-02-04T14:49:47;10.50;99.90
31038;DHT22;17702;47.590;7.666;2023-02-04T14:52:13;10.50;99.90
31038;DHT22;17702;47.590;7.666;2023-02-04T14:54:39;10.50;99.90
31038;DHT22;17702;47.590;7.666;2023-02-04T14:57:04;10.50;99.90
31038;DHT22;17702;47.590;7.666;2023-02-04T14:59:30;10.50;99.90
31038;DHT22;17702;47.590;7.666;2023-02-04T15:01:55;10.50;99.90
31038;DHT22;17702;47.590;7.666;2023-02-04T15:04:21;10.50;99.90
31038;DHT22;17702;47.590;7.666;2023-02-04T15:06:46;10.50;99.90
31038;DHT22;17702;47.590;7.666;2023-02-04T15:09:12;10.40;99.90
31038;DHT22;17702;47.590;7.666;2023-02-04T15:11:37;10.40;99.90
31038;DHT22;17702;47.590;7.666;2023-02-04T15:14:03;10.40;99.90
31038;DHT22;17702;47.590;7.666;2023-02-04T15:16:28;10.40;99.90
31038;DHT22;17702;47.590;7.666;2023-02-04T15:18:54;10.40;99.90
31038;DHT22;17702;47.590;7.666;2023-02-04T15:21:19;10.30;99.90
31038;DHT22;17702;47.590;7.666;2023-02-04T15:23:45;10.40;99.90
31038;DHT22;17702;47.590;7.666;2023-02-04T15:26:14;10.40;99.90
31038;DHT22;17702;47.590;7.666;2023-02-04T15:28:40;10.30;99.90
31038;DHT22;17702;47.590;7.666;2023-02-04T15:31:05;10.30;99.90
31038;DHT22;17702;47.590;7.666;2023-02-04T15:33:30;10.30;99.90
31038;DHT22;17702;47.590;7.666;2023-02-04T15:35:56;10.30;99.90
31038;DHT22;17702;47.590;7.666;2023-02-04T15:38:21;10.30;99.90
31038;DHT22;17702;47.590;7.666;2023-02-04T15:40:47;10.30;99.90
31038;DHT22;17702;47.590;7.666;2023-02-04T15:43:12;10.20;99.90
31038;DHT22;17702;47.590;7.666;2023-02-04T15:45:38;10.20;99.90
31038;DHT22;17702;47.590;7.666;2023-02-04T15:48:06;10.10;99.90
31038;DHT22;17702;47.590;7.666;2023-02-04T15:50:32;10.10;99.90